Ana Sayfa
METAR-TAF:

METAR-TAF

Havaalanları :

Lubbock, Teksas, Amerika Birleşik Devletleri

Enlem: 33-40-03N, Boylam: 101-49-17W, yükseklik: 1000 m

Güncel hava durumu gözlemi

Rapor saat 20:53 UTC de 31 dakika önce yapıldı.
Rüzgar güneydan 12 kt ve 19 kt'a kadar ani rüzgarlar
Sıcaklık 32°C
Nem 32%
Basınç 1016 hPa
Görüş mesafesi: 16.1 km
7000 ft yükseklikte az bulutlu
10000 ft yükseklikte parçalı bulutlu
11000 ft yükseklikte parçalı çok bulutlu

METAR: KLBB 172053Z 17012G19KT 10SM FEW070 SCT100 BKN110 32/13 A3001 RMK AO2 SLP106 T03170128 56022

Saat: 16:24 (21:24 UTC)

Tahmin

Rapor saat 17:20 UTC de 4 saat ve 4 dakika önce yapıldı.
Ayın 17'si saat 18 UTC'den ayın 18'si saat 18 UTC'ye kadar geçerli Tahmin
Rüzgar güneydan 11 kt
Görüş mesafesi: 10 km
25000 ft yükseklikte az bulutlu

TAF: KLBB 171720Z 1718/1818 19011KT P6SM FEW250

4.000'den fazla havaalanı için hava durumu gözlemleri ve tahminleri (METAR ve TAF raporları).

Kullanılabilir istasyonlar harita üzerinde sarı ve kırmızı noktalarla gösterilir.

İstasyonun adını görmek için fareyi noktanın üzerinde gezdirin.

Sonrasında hava gözlem ve tahminlerini görmek için tıklayın.

Haritayı değiştirmek için: yaklaştırmak için siyah artı işaretli yeşil düğmeye ve uzaklaştırmak için de eksi işaretli düğmeye hızla tıklayın; bitişik haritalar için yeşil okları kullanın.


METAR-TAF: